createdAt,value
2017-08-06T00:00:36.803Z,68.00
2017-08-06T00:03:04.584Z,68.00
2017-08-06T00:05:32.079Z,67.90
2017-08-06T00:07:59.604Z,67.50
2017-08-06T00:10:27.131Z,67.00
2017-08-06T00:12:54.655Z,66.60
2017-08-06T00:15:22.180Z,66.60
2017-08-06T00:17:50.833Z,66.30
2017-08-06T00:20:19.127Z,66.60
2017-08-06T00:22:47.027Z,66.20
2017-08-06T00:25:14.583Z,66.50
2017-08-06T00:27:42.165Z,66.10
2017-08-06T00:30:09.701Z,65.80
2017-08-06T00:32:37.212Z,66.20
2017-08-06T00:35:05.878Z,66.40
2017-08-06T00:37:34.528Z,66.40
2017-08-06T00:40:02.060Z,66.40
2017-08-06T00:42:29.564Z,66.30
2017-08-06T00:44:57.088Z,66.10
2017-08-06T00:47:24.602Z,66.30
2017-08-06T00:49:52.530Z,65.80
2017-08-06T00:52:20.041Z,65.80
2017-08-06T00:54:47.588Z,65.80
2017-08-06T00:57:15.487Z,65.50
2017-08-06T00:59:42.995Z,65.30
2017-08-06T01:02:11.661Z,65.50
2017-08-06T01:04:39.172Z,65.90
2017-08-06T01:07:06.799Z,66.20
2017-08-06T01:09:34.707Z,65.80
2017-08-06T01:12:02.221Z,65.50
2017-08-06T01:14:29.724Z,65.80
2017-08-06T01:16:58.020Z,66.20
2017-08-06T01:19:25.930Z,66.40
2017-08-06T01:21:54.230Z,66.90
2017-08-06T01:24:21.723Z,66.90
2017-08-06T01:26:49.639Z,66.90
2017-08-06T01:29:17.146Z,66.50
2017-08-06T01:31:44.684Z,66.10
2017-08-06T01:34:12.203Z,65.60
2017-08-06T01:36:39.735Z,64.80
2017-08-06T01:39:07.248Z,65.30
2017-08-06T01:41:34.752Z,65.40
2017-08-06T01:44:02.280Z,65.30
2017-08-06T01:46:30.551Z,65.30
2017-08-06T01:48:58.076Z,65.50
2017-08-06T01:51:26.343Z,65.90
2017-08-06T01:53:53.878Z,66.00
2017-08-06T01:56:21.775Z,65.90
2017-08-06T01:58:49.306Z,65.80
2017-08-06T02:01:16.822Z,66.00
2017-08-06T02:03:44.346Z,66.00
2017-08-06T02:06:12.975Z,65.70
2017-08-06T02:08:40.491Z,65.50
2017-08-06T02:11:07.994Z,65.60
2017-08-06T02:13:36.291Z,65.70
2017-08-06T02:16:03.791Z,65.80
2017-08-06T02:18:32.064Z,66.60
2017-08-06T02:23:28.858Z,66.50
2017-08-06T02:25:56.383Z,66.30
2017-08-06T02:28:24.656Z,66.60
2017-08-06T02:33:21.043Z,66.30
2017-08-06T02:35:48.555Z,66.50
2017-08-06T02:38:16.059Z,66.60
2017-08-06T02:40:43.575Z,66.60
2017-08-06T02:43:11.079Z,66.50
2017-08-06T02:45:38.613Z,66.20
2017-08-06T02:48:06.875Z,65.70
2017-08-06T02:50:34.372Z,65.80
2017-08-06T02:53:01.905Z,65.80
2017-08-06T02:55:29.423Z,65.90
2017-08-06T02:57:56.947Z,65.90
2017-08-06T03:00:25.223Z,65.90
2017-08-06T03:02:52.740Z,66.00
2017-08-06T03:05:20.244Z,66.10
2017-08-06T03:07:48.554Z,66.90
2017-08-06T03:10:16.443Z,66.30
2017-08-06T03:12:43.975Z,66.10
2017-08-06T03:15:11.489Z,66.40
2017-08-06T03:17:39.804Z,67.30
2017-08-06T03:20:07.303Z,66.60
2017-08-06T03:22:34.814Z,66.60
2017-08-06T03:25:02.347Z,66.90
2017-08-06T03:27:29.849Z,67.10
2017-08-06T03:29:57.370Z,67.30
2017-08-06T03:32:25.636Z,67.40
2017-08-06T03:34:53.916Z,67.30
2017-08-06T03:37:22.194Z,67.40
2017-08-06T03:39:49.723Z,67.50
2017-08-06T03:42:18.371Z,67.70
2017-08-06T03:44:45.900Z,67.80
2017-08-06T03:47:14.552Z,67.80
2017-08-06T03:49:42.080Z,67.50
2017-08-06T03:52:09.596Z,67.80
2017-08-06T03:54:37.876Z,67.70
2017-08-06T03:57:06.171Z,67.60
2017-08-06T03:59:33.679Z,67.80
2017-08-06T04:02:01.203Z,67.90
2017-08-06T04:04:28.727Z,67.70
2017-08-06T04:06:56.257Z,67.70
2017-08-06T04:09:23.763Z,67.80
2017-08-06T04:11:51.276Z,67.70
2017-08-06T04:14:18.778Z,67.80
2017-08-06T04:16:47.075Z,68.30
2017-08-06T04:19:14.572Z,67.70
2017-08-06T04:21:42.100Z,67.60
2017-08-06T04:24:10.383Z,67.40
2017-08-06T04:26:38.675Z,67.20
2017-08-06T04:29:06.950Z,67.20
2017-08-06T04:31:34.457Z,67.10
2017-08-06T04:34:01.982Z,67.10
2017-08-06T04:36:29.483Z,67.20
2017-08-06T04:38:58.148Z,67.10
2017-08-06T04:41:25.646Z,67.40
2017-08-06T04:43:53.172Z,67.30
2017-08-06T04:48:50.318Z,68.00
2017-08-06T04:51:18.211Z,67.60
2017-08-06T04:53:45.735Z,67.20
2017-08-06T04:56:13.236Z,67.60
2017-08-06T04:58:40.752Z,67.70
2017-08-06T05:01:08.271Z,67.30
2017-08-06T05:03:35.794Z,66.90
2017-08-06T05:06:04.088Z,67.10
2017-08-06T05:08:31.596Z,67.50
2017-08-06T05:10:59.123Z,67.40
2017-08-06T05:13:27.398Z,67.90
2017-08-06T05:15:54.931Z,67.90
2017-08-06T05:18:22.428Z,67.60
2017-08-06T05:20:49.959Z,67.40
2017-08-06T05:23:17.473Z,66.90
2017-08-06T05:25:45.000Z,66.50
2017-08-06T05:28:12.523Z,66.40
2017-08-06T05:30:41.543Z,66.40
2017-08-06T05:33:10.214Z,66.40
2017-08-06T05:35:38.490Z,66.90
2017-08-06T05:38:06.779Z,66.80
2017-08-06T05:40:34.279Z,65.70
2017-08-06T05:43:01.810Z,65.20
2017-08-06T05:45:29.331Z,65.00
2017-08-06T05:47:58.359Z,64.60
2017-08-06T05:50:25.864Z,64.20
2017-08-06T05:52:54.168Z,65.00
2017-08-06T05:55:21.684Z,64.50
2017-08-06T05:57:49.192Z,64.50
2017-08-06T06:00:18.311Z,64.30
2017-08-06T06:02:45.827Z,64.40
2017-08-06T06:05:13.354Z,64.10
2017-08-06T06:07:40.855Z,63.70
2017-08-06T06:10:09.139Z,63.90
2017-08-06T06:12:36.648Z,63.70
2017-08-06T06:15:04.932Z,64.40
2017-08-06T06:17:32.428Z,64.20
2017-08-06T06:20:00.383Z,64.30
2017-08-06T06:22:27.879Z,63.90
2017-08-06T06:24:55.411Z,63.80
2017-08-06T06:27:23.683Z,63.90
2017-08-06T06:29:51.215Z,63.90
2017-08-06T06:32:18.723Z,64.20
2017-08-06T06:34:47.520Z,63.90
2017-08-06T06:37:15.048Z,63.50
2017-08-06T06:39:42.571Z,63.40
2017-08-06T06:42:10.100Z,62.90
2017-08-06T06:44:38.750Z,62.50
2017-08-06T06:47:06.280Z,62.50
2017-08-06T06:49:33.792Z,62.50
2017-08-06T06:52:01.329Z,62.50
2017-08-06T06:54:29.224Z,62.20
2017-08-06T06:56:56.759Z,62.20
2017-08-06T06:59:25.403Z,61.70
2017-08-06T07:01:54.061Z,61.60
2017-08-06T07:04:21.967Z,60.60
2017-08-06T07:09:18.346Z,59.00
2017-08-06T07:11:45.863Z,58.70
2017-08-06T07:14:14.135Z,58.50
2017-08-06T07:16:41.635Z,57.40
2017-08-06T07:19:10.676Z,57.60
2017-08-06T07:21:39.318Z,57.40
2017-08-06T07:24:07.619Z,57.10
2017-08-06T07:26:35.116Z,57.20
2017-08-06T07:29:03.781Z,56.50
2017-08-06T07:31:31.287Z,56.80
2017-08-06T07:33:59.604Z,56.90
2017-08-06T07:36:27.883Z,56.90
2017-08-06T07:38:55.817Z,56.80
2017-08-06T07:41:23.340Z,56.80
2017-08-06T07:43:50.894Z,56.60
2017-08-06T07:46:18.420Z,56.90
2017-08-06T07:48:45.941Z,56.80
2017-08-06T07:51:13.453Z,57.30
2017-08-06T07:53:40.961Z,56.80
2017-08-06T07:56:08.881Z,56.60
2017-08-06T07:58:37.144Z,56.20
2017-08-06T08:01:05.072Z,56.20
2017-08-06T08:03:32.571Z,56.00
2017-08-06T08:06:00.096Z,55.90
2017-08-06T08:08:28.379Z,55.80
2017-08-06T08:10:55.912Z,56.60
2017-08-06T08:13:23.415Z,56.50
2017-08-06T08:15:50.939Z,56.70
2017-08-06T08:18:19.216Z,57.10
2017-08-06T08:20:47.888Z,56.90
2017-08-06T08:23:15.387Z,55.80
2017-08-06T08:25:42.922Z,55.50
2017-08-06T08:28:10.824Z,55.40
2017-08-06T08:30:38.723Z,55.80
2017-08-06T08:33:07.392Z,55.90
2017-08-06T08:35:34.917Z,55.60
2017-08-06T08:38:03.229Z,55.30
2017-08-06T08:40:30.735Z,55.30
2017-08-06T08:42:58.263Z,55.50
2017-08-06T08:45:25.771Z,54.80
2017-08-06T08:47:53.296Z,54.20
2017-08-06T08:50:21.570Z,52.90
2017-08-06T08:52:49.096Z,53.00
2017-08-06T08:55:17.372Z,52.30
2017-08-06T08:57:45.290Z,52.70
2017-08-06T09:00:14.300Z,52.70
2017-08-06T09:05:11.451Z,52.00
2017-08-06T09:10:09.364Z,51.20
2017-08-06T09:12:38.003Z,51.30
2017-08-06T09:15:05.527Z,52.10
2017-08-06T09:17:33.037Z,52.20
2017-08-06T09:20:01.327Z,52.50
2017-08-06T09:22:29.602Z,52.50
2017-08-06T09:24:57.891Z,52.60
2017-08-06T09:27:26.235Z,53.20
2017-08-06T09:29:53.763Z,52.90
2017-08-06T09:32:22.044Z,51.60
2017-08-06T09:34:49.608Z,51.80
2017-08-06T09:37:17.115Z,50.60
2017-08-06T09:39:45.431Z,50.70
2017-08-06T09:42:12.948Z,51.10
2017-08-06T09:44:40.883Z,50.50
2017-08-06T09:47:08.388Z,50.00
2017-08-06T09:49:35.895Z,50.30
2017-08-06T09:52:03.811Z,49.70
2017-08-06T09:54:31.708Z,50.10
2017-08-06T09:56:59.232Z,50.10
2017-08-06T09:59:27.875Z,50.60
2017-08-06T10:01:56.159Z,50.90
2017-08-06T10:04:24.435Z,50.60
2017-08-06T10:06:53.088Z,51.80
2017-08-06T10:09:21.363Z,52.50
2017-08-06T10:11:48.887Z,52.50
2017-08-06T10:14:16.789Z,52.60
2017-08-06T10:16:44.316Z,53.40
2017-08-06T10:19:11.815Z,53.50
2017-08-06T10:21:40.120Z,54.70
2017-08-06T10:24:07.633Z,54.10
2017-08-06T10:26:36.635Z,54.50
2017-08-06T10:31:33.016Z,54.40
2017-08-06T10:34:00.544Z,55.00
2017-08-06T10:36:28.825Z,54.30
2017-08-06T10:38:56.347Z,53.10
2017-08-06T10:41:24.995Z,53.70
2017-08-06T10:43:52.520Z,54.40
2017-08-06T10:46:20.037Z,54.70
2017-08-06T10:48:47.571Z,54.50
2017-08-06T10:51:15.847Z,54.20
2017-08-06T10:56:12.984Z,53.60
2017-08-06T10:58:41.667Z,54.70
2017-08-06T11:01:09.159Z,55.90
2017-08-06T11:03:37.436Z,56.60
2017-08-06T11:06:04.960Z,57.80
2017-08-06T11:08:33.194Z,58.80
2017-08-06T11:11:00.724Z,58.60
2017-08-06T11:13:29.003Z,58.80
2017-08-06T11:15:56.530Z,59.10
2017-08-06T11:18:24.806Z,59.60
2017-08-06T11:20:52.324Z,60.00
2017-08-06T11:23:19.929Z,59.90
2017-08-06T11:25:47.470Z,61.00
2017-08-06T11:28:15.379Z,61.30
2017-08-06T11:30:42.903Z,61.00
2017-08-06T11:33:10.419Z,60.90
2017-08-06T11:35:37.955Z,60.70
2017-08-06T11:38:05.459Z,60.40
2017-08-06T11:40:33.002Z,61.20
2017-08-06T11:43:00.507Z,61.20
2017-08-06T11:45:28.023Z,61.40
2017-08-06T11:47:55.549Z,61.20
2017-08-06T11:50:23.471Z,60.70
2017-08-06T11:52:51.387Z,60.50
2017-08-06T11:55:18.904Z,60.50
2017-08-06T11:57:46.435Z,61.40
2017-08-06T12:00:14.715Z,63.30
2017-08-06T12:02:42.234Z,63.90
2017-08-06T12:05:09.738Z,64.00
2017-08-06T12:07:38.024Z,64.90
2017-08-06T12:10:05.531Z,64.20
2017-08-06T12:12:33.837Z,64.50
2017-08-06T12:15:02.103Z,66.00
2017-08-06T12:17:29.635Z,66.40
2017-08-06T12:19:57.544Z,66.80
2017-08-06T12:22:25.104Z,67.40
2017-08-06T12:24:52.627Z,67.90
2017-08-06T12:27:20.140Z,68.20
2017-08-06T12:29:48.459Z,68.20
2017-08-06T12:32:16.365Z,68.40
2017-08-06T12:34:43.995Z,68.60
2017-08-06T12:37:11.505Z,68.80
2017-08-06T12:39:39.027Z,68.40
2017-08-06T12:42:06.539Z,68.60
2017-08-06T12:44:34.058Z,69.00
2017-08-06T12:47:01.562Z,69.50
2017-08-06T12:49:29.487Z,69.30
2017-08-06T12:51:56.994Z,69.20
2017-08-06T12:54:24.523Z,69.20
2017-08-06T12:56:52.032Z,68.80
2017-08-06T12:59:19.540Z,69.60
2017-08-06T13:01:47.063Z,69.80
2017-08-06T13:04:14.575Z,70.00
2017-08-06T13:06:42.491Z,69.90
2017-08-06T13:09:10.007Z,70.10
2017-08-06T13:11:37.540Z,69.70
2017-08-06T13:14:05.067Z,69.80
2017-08-06T13:16:32.593Z,69.50
2017-08-06T13:19:00.880Z,69.20
2017-08-06T13:21:28.904Z,69.60
2017-08-06T13:23:56.415Z,70.00
2017-08-06T13:26:25.471Z,69.60
2017-08-06T13:28:52.978Z,70.00
2017-08-06T13:31:21.260Z,70.60
2017-08-06T13:33:48.792Z,69.40
2017-08-06T13:36:17.067Z,69.60
2017-08-06T13:38:44.990Z,69.40
2017-08-06T13:41:13.699Z,69.50
2017-08-06T13:43:41.215Z,69.20
2017-08-06T13:46:08.723Z,68.70
2017-08-06T13:48:36.642Z,67.70
2017-08-06T13:51:05.308Z,67.40
2017-08-06T13:53:33.263Z,67.30
2017-08-06T13:56:00.787Z,67.20
2017-08-06T13:58:29.095Z,66.90
2017-08-06T14:00:56.986Z,66.80
2017-08-06T14:05:53.447Z,66.50
2017-08-06T14:08:21.721Z,65.80
2017-08-06T14:10:49.247Z,64.70
2017-08-06T14:13:16.764Z,65.40
2017-08-06T14:15:45.055Z,65.80
2017-08-06T14:18:12.607Z,66.10
2017-08-06T14:20:40.566Z,66.00
2017-08-06T14:23:08.479Z,65.10
2017-08-06T14:25:36.021Z,65.00
2017-08-06T14:28:03.557Z,64.50
2017-08-06T14:30:31.079Z,65.00
2017-08-06T14:32:58.582Z,65.00
2017-08-06T14:35:26.108Z,65.00
2017-08-06T14:37:54.143Z,65.50
2017-08-06T14:40:21.699Z,65.40
2017-08-06T14:42:49.218Z,65.70
2017-08-06T14:45:16.740Z,65.40
2017-08-06T14:47:44.265Z,65.60
2017-08-06T14:50:11.763Z,65.80
2017-08-06T14:52:39.295Z,66.10
2017-08-06T14:55:07.935Z,66.50
2017-08-06T14:57:35.456Z,66.30
2017-08-06T15:00:03.732Z,66.70
2017-08-06T15:02:31.648Z,67.00
2017-08-06T15:04:59.159Z,67.50
2017-08-06T15:07:26.687Z,67.40
2017-08-06T15:09:54.187Z,67.50
2017-08-06T15:12:21.715Z,67.90
2017-08-06T15:14:49.995Z,68.20
2017-08-06T15:17:17.519Z,67.70
2017-08-06T15:19:45.031Z,67.90
2017-08-06T15:22:12.928Z,68.20
2017-08-06T15:27:10.072Z,67.60
2017-08-06T15:32:06.853Z,67.30
2017-08-06T15:34:34.767Z,66.40
2017-08-06T15:37:03.785Z,66.00
2017-08-06T15:39:31.695Z,65.80
2017-08-06T15:41:59.196Z,66.10
2017-08-06T15:44:27.504Z,67.30
2017-08-06T15:46:55.016Z,67.80
2017-08-06T15:49:22.539Z,67.90
2017-08-06T15:51:50.063Z,67.60
2017-08-06T15:54:17.568Z,67.50
2017-08-06T15:56:45.878Z,67.90
2017-08-06T15:59:13.392Z,66.90
2017-08-06T16:01:41.678Z,66.40
2017-08-06T16:04:09.225Z,67.20
2017-08-06T16:06:38.262Z,66.70
2017-08-06T16:09:06.263Z,66.30
2017-08-06T16:11:33.791Z,66.50
2017-08-06T16:14:01.311Z,66.70
2017-08-06T16:16:29.248Z,65.90
2017-08-06T16:18:57.147Z,65.50
2017-08-06T16:21:25.820Z,66.30
2017-08-06T16:23:53.331Z,66.50
2017-08-06T16:26:20.846Z,67.10
2017-08-06T16:28:49.127Z,67.60
2017-08-06T16:31:18.148Z,66.80
2017-08-06T16:33:46.807Z,66.10
2017-08-06T16:38:43.220Z,65.30
2017-08-06T16:41:10.716Z,65.70
2017-08-06T16:43:39.011Z,65.20
2017-08-06T16:46:06.912Z,66.00
2017-08-06T16:48:34.451Z,65.50
2017-08-06T16:51:03.462Z,65.80
2017-08-06T16:53:30.992Z,66.00
2017-08-06T16:55:59.640Z,66.40
2017-08-06T16:58:27.163Z,66.50
2017-08-06T17:00:54.680Z,66.60
2017-08-06T17:03:22.949Z,67.00
2017-08-06T17:05:50.475Z,67.10
2017-08-06T17:08:17.983Z,67.40
2017-08-06T17:10:47.272Z,69.20
2017-08-06T17:13:15.543Z,68.60
2017-08-06T17:15:43.459Z,68.10
2017-08-06T17:18:11.734Z,67.90
2017-08-06T17:20:39.668Z,67.50
2017-08-06T17:23:07.158Z,67.90
2017-08-06T17:25:34.697Z,67.80
2017-08-06T17:28:02.199Z,67.50
2017-08-06T17:30:30.472Z,67.30
2017-08-06T17:32:58.408Z,67.40
2017-08-06T17:35:25.898Z,67.90
2017-08-06T17:37:54.192Z,67.70
2017-08-06T17:40:22.465Z,68.40
2017-08-06T17:42:50.751Z,68.40
2017-08-06T17:45:18.260Z,67.90
2017-08-06T17:47:46.547Z,68.20
2017-08-06T17:50:14.819Z,68.30
2017-08-06T17:52:42.743Z,68.20
2017-08-06T17:55:10.635Z,68.00
2017-08-06T17:57:38.171Z,68.50
2017-08-06T18:00:05.675Z,68.80
2017-08-06T18:02:33.186Z,68.80
2017-08-06T18:05:00.724Z,68.80
2017-08-06T18:07:29.764Z,69.00
2017-08-06T18:09:57.686Z,68.70
2017-08-06T18:12:26.879Z,68.80
2017-08-06T18:14:54.820Z,69.10
2017-08-06T18:17:22.344Z,69.10
2017-08-06T18:19:49.865Z,69.20
2017-08-06T18:22:17.361Z,69.40
2017-08-06T18:24:45.463Z,69.30
2017-08-06T18:27:12.984Z,69.30
2017-08-06T18:29:40.895Z,69.10
2017-08-06T18:32:21.213Z,69.30
2017-08-06T18:34:48.788Z,69.30
2017-08-06T18:37:17.435Z,69.50
2017-08-06T18:39:44.960Z,69.50
2017-08-06T18:42:12.486Z,69.40
2017-08-06T18:44:40.386Z,69.40
2017-08-06T18:47:07.912Z,69.60
2017-08-06T18:49:35.807Z,69.40
2017-08-06T18:52:03.341Z,69.90
2017-08-06T18:57:00.155Z,69.60
2017-08-06T19:01:57.361Z,71.00
2017-08-06T19:04:26.050Z,70.60
2017-08-06T19:11:51.672Z,71.10
2017-08-06T19:14:19.214Z,71.10
2017-08-06T19:16:47.524Z,71.30
2017-08-06T19:19:15.015Z,71.40
2017-08-06T19:24:12.737Z,71.70
2017-08-06T19:26:40.641Z,72.00
2017-08-06T19:29:08.602Z,72.20
2017-08-06T19:31:36.881Z,71.90
2017-08-06T19:34:04.462Z,71.90
2017-08-06T19:36:32.739Z,72.10
2017-08-06T19:39:00.315Z,72.00
2017-08-06T19:41:27.832Z,72.00
2017-08-06T19:43:55.428Z,72.10
2017-08-06T19:48:53.439Z,71.80
2017-08-06T19:51:22.452Z,71.70
2017-08-06T19:53:50.044Z,71.70
2017-08-06T19:56:17.563Z,71.90
2017-08-06T19:58:45.292Z,72.00
2017-08-06T20:01:12.814Z,72.00
2017-08-06T20:03:41.510Z,72.20
2017-08-06T20:06:10.748Z,72.00
2017-08-06T20:08:38.281Z,71.90
2017-08-06T20:11:06.595Z,71.80
2017-08-06T20:13:34.103Z,71.70
2017-08-06T20:16:01.623Z,71.80
2017-08-06T20:18:29.904Z,71.70
2017-08-06T20:20:57.596Z,71.70
2017-08-06T20:23:25.861Z,71.50
2017-08-06T20:25:53.398Z,71.20
2017-08-06T20:28:20.895Z,71.50
2017-08-06T20:30:48.402Z,71.60
2017-08-06T20:33:15.935Z,71.60
2017-08-06T20:35:43.431Z,71.60
2017-08-06T20:38:10.951Z,71.50
2017-08-06T20:40:39.231Z,72.10
2017-08-06T20:43:07.164Z,71.40
2017-08-06T20:45:34.686Z,71.60
2017-08-06T20:48:02.320Z,71.50
2017-08-06T20:50:29.811Z,71.50
2017-08-06T20:52:57.331Z,71.40
2017-08-06T20:55:25.959Z,71.50
2017-08-06T20:57:54.236Z,71.40
2017-08-06T21:00:22.507Z,71.20
2017-08-06T21:02:50.015Z,71.40
2017-08-06T21:05:18.316Z,71.10
2017-08-06T21:07:47.325Z,71.00
2017-08-06T21:10:14.863Z,71.20
2017-08-06T21:12:42.355Z,71.70
2017-08-06T21:15:10.631Z,71.60
2017-08-06T21:17:38.145Z,71.50
2017-08-06T21:20:05.683Z,71.40
2017-08-06T21:22:33.192Z,71.10
2017-08-06T21:25:00.715Z,71.20
2017-08-06T21:27:28.227Z,71.10
2017-08-06T21:29:56.891Z,71.00
2017-08-06T21:32:25.168Z,71.40
2017-08-06T21:34:52.690Z,70.90
2017-08-06T21:37:21.323Z,70.80
2017-08-06T21:39:50.343Z,70.50
2017-08-06T21:42:17.863Z,70.40
2017-08-06T21:44:46.142Z,71.00
2017-08-06T21:47:14.057Z,70.40
2017-08-06T21:49:41.568Z,70.60
2017-08-06T21:52:09.093Z,70.90
2017-08-06T21:54:36.606Z,71.20
2017-08-06T21:57:04.141Z,71.20
2017-08-06T21:59:31.652Z,71.10
2017-08-06T22:01:59.177Z,70.70
2017-08-06T22:04:26.685Z,70.90
2017-08-06T22:06:54.606Z,70.70
2017-08-06T22:09:22.111Z,70.50
2017-08-06T22:11:50.388Z,71.30
2017-08-06T22:14:18.719Z,72.10
2017-08-06T22:16:46.226Z,70.90
2017-08-06T22:19:13.748Z,71.30
2017-08-06T22:21:41.240Z,71.50
2017-08-06T22:24:08.771Z,71.10
2017-08-06T22:26:36.289Z,71.10
2017-08-06T22:29:04.209Z,71.00
2017-08-06T22:31:32.487Z,71.10
2017-08-06T22:34:00.023Z,71.10
2017-08-06T22:36:28.676Z,71.10
2017-08-06T22:38:56.205Z,71.20
2017-08-06T22:41:24.111Z,71.30
2017-08-06T22:43:51.613Z,71.50
2017-08-06T22:46:19.150Z,71.70
2017-08-06T22:48:46.647Z,71.60
2017-08-06T22:51:14.272Z,71.60
2017-08-06T22:53:41.793Z,71.80
2017-08-06T22:56:09.323Z,71.80
2017-08-06T22:58:36.839Z,71.50
2017-08-06T23:01:04.381Z,71.30
2017-08-06T23:03:33.399Z,71.10
2017-08-06T23:06:00.931Z,71.00
2017-08-06T23:08:29.578Z,70.80
2017-08-06T23:10:57.100Z,70.80
2017-08-06T23:13:24.595Z,70.70
2017-08-06T23:15:52.096Z,70.60
2017-08-06T23:18:19.651Z,70.60
2017-08-06T23:20:47.174Z,70.60
2017-08-06T23:23:14.699Z,70.70
2017-08-06T23:25:42.979Z,70.70
2017-08-06T23:28:10.507Z,70.60
2017-08-06T23:30:38.028Z,70.60
2017-08-06T23:33:05.556Z,70.50
2017-08-06T23:35:33.074Z,70.40
2017-08-06T23:38:00.603Z,70.40
2017-08-06T23:40:28.099Z,70.10
2017-08-06T23:42:55.620Z,70.20
2017-08-06T23:45:23.112Z,70.30
2017-08-06T23:47:51.420Z,70.30
2017-08-06T23:50:18.946Z,70.30
2017-08-06T23:52:46.439Z,70.30
2017-08-06T23:55:14.741Z,71.10
2017-08-06T23:57:42.235Z,70.30
